createdAt,value
2022-10-13T00:01:36.054Z,73.83
2022-10-13T00:06:42.645Z,74.16
2022-10-13T00:11:48.920Z,73.48
2022-10-13T00:16:57.778Z,73.27
2022-10-13T00:22:03.840Z,73.39
2022-10-13T00:27:09.711Z,73.02
2022-10-13T00:32:17.442Z,73.26
2022-10-13T00:37:23.541Z,71.18
2022-10-13T00:42:29.604Z,73.08
2022-10-13T00:47:46.279Z,72.82
2022-10-13T00:52:54.281Z,73.44
2022-10-13T00:58:24.875Z,73.35
2022-10-13T01:03:33.317Z,72.09
2022-10-13T01:08:39.406Z,73.41
2022-10-13T01:13:57.431Z,71.70
2022-10-13T01:19:22.697Z,72.80
2022-10-13T01:24:49.440Z,73.09
2022-10-13T01:30:18.087Z,73.65
2022-10-13T01:35:34.732Z,73.07
2022-10-13T01:40:46.710Z,74.08
2022-10-13T01:46:00.317Z,73.87
2022-10-13T01:51:08.699Z,75.77
2022-10-13T01:56:15.152Z,74.76
2022-10-13T02:01:51.126Z,73.23
2022-10-13T02:07:11.405Z,74.22
2022-10-13T02:12:26.394Z,74.17
2022-10-13T02:17:34.497Z,73.75
2022-10-13T02:22:45.472Z,74.52
2022-10-13T02:27:52.159Z,74.82
2022-10-13T02:32:59.702Z,74.79
2022-10-13T02:38:06.065Z,74.65
2022-10-13T02:43:12.019Z,75.90
2022-10-13T02:48:19.539Z,74.88
2022-10-13T02:53:25.624Z,76.13
2022-10-13T02:58:32.611Z,76.90
2022-10-13T03:03:42.821Z,77.16
2022-10-13T03:08:48.967Z,77.40
2022-10-13T03:13:54.997Z,76.39
2022-10-13T03:19:02.346Z,76.99
2022-10-13T03:24:08.875Z,76.19
2022-10-13T03:29:16.121Z,75.52
2022-10-13T03:34:23.551Z,75.77
2022-10-13T03:39:29.912Z,74.92
2022-10-13T03:44:35.969Z,74.20
2022-10-13T03:49:43.459Z,74.21
2022-10-13T03:54:49.529Z,74.08
2022-10-13T03:59:56.882Z,75.12
2022-10-13T04:05:08.489Z,74.97
2022-10-13T04:10:14.520Z,74.29
2022-10-13T04:15:21.642Z,73.90
2022-10-13T04:20:29.733Z,74.65
2022-10-13T04:25:37.752Z,74.31
2022-10-13T04:30:49.097Z,74.30
2022-10-13T04:35:57.044Z,75.21
2022-10-13T04:41:05.216Z,74.72
2022-10-13T04:46:14.852Z,74.22
2022-10-13T04:51:24.714Z,75.27
2022-10-13T04:56:31.114Z,74.80
2022-10-13T05:01:41.331Z,74.16
2022-10-13T05:07:16.346Z,74.73
2022-10-13T05:12:21.373Z,73.89
2022-10-13T05:17:29.755Z,74.75
2022-10-13T05:22:42.413Z,75.56
2022-10-13T05:27:48.421Z,75.36
2022-10-13T05:32:56.204Z,75.68
2022-10-13T05:38:03.638Z,76.23
2022-10-13T05:43:09.620Z,75.64
2022-10-13T05:48:15.631Z,76.47
2022-10-13T05:53:25.786Z,77.36
2022-10-13T05:58:33.476Z,78.70
2022-10-13T06:03:40.778Z,78.76
2022-10-13T06:08:48.598Z,79.17
2022-10-13T06:13:54.625Z,79.18
2022-10-13T06:19:01.028Z,79.58
2022-10-13T06:24:08.990Z,79.32
2022-10-13T06:29:16.505Z,78.47
2022-10-13T06:34:22.643Z,78.79
2022-10-13T06:39:30.143Z,78.05
2022-10-13T06:44:39.808Z,78.71
2022-10-13T06:49:45.758Z,79.15
2022-10-13T06:54:53.585Z,80.09
2022-10-13T06:59:59.697Z,79.66
2022-10-13T07:05:06.544Z,79.53
2022-10-13T07:10:15.021Z,80.00
2022-10-13T07:15:21.130Z,79.47
2022-10-13T07:20:28.661Z,80.77
2022-10-13T07:25:36.313Z,82.02
2022-10-13T07:30:43.216Z,83.19
2022-10-13T07:35:49.225Z,84.29
2022-10-13T07:40:56.599Z,86.16
2022-10-13T07:46:04.939Z,87.26
2022-10-13T07:51:14.451Z,88.83
2022-10-13T07:56:21.875Z,89.03
2022-10-13T08:01:27.953Z,89.61
2022-10-13T08:06:34.226Z,90.08
2022-10-13T08:11:42.454Z,90.27
2022-10-13T08:16:51.358Z,89.96
2022-10-13T08:22:00.276Z,89.51
2022-10-13T08:27:14.181Z,89.49
2022-10-13T08:32:22.012Z,88.98
2022-10-13T08:37:28.521Z,88.14
2022-10-13T08:42:36.953Z,86.96
2022-10-13T08:47:48.430Z,86.51
2022-10-13T08:52:58.761Z,86.27
2022-10-13T08:58:31.311Z,84.89
2022-10-13T09:03:48.826Z,84.36
2022-10-13T09:08:58.776Z,83.37
2022-10-13T09:14:09.965Z,82.35
2022-10-13T09:19:23.235Z,80.86
2022-10-13T09:24:29.556Z,78.09
2022-10-13T09:29:37.328Z,77.89
2022-10-13T09:34:43.495Z,78.64
2022-10-13T09:40:03.781Z,78.45
2022-10-13T09:45:19.302Z,77.19
2022-10-13T09:50:28.560Z,72.23
2022-10-13T09:55:36.602Z,72.82
2022-10-13T10:00:45.117Z,72.90
2022-10-13T10:05:55.906Z,73.94
2022-10-13T10:11:03.341Z,73.67
2022-10-13T10:16:20.748Z,72.84
2022-10-13T10:21:37.854Z,72.36
2022-10-13T10:26:56.728Z,71.75
2022-10-13T10:32:29.181Z,71.11
2022-10-13T10:38:05.376Z,69.81
2022-10-13T10:43:43.356Z,66.97
2022-10-13T10:48:58.806Z,67.58
2022-10-13T10:54:28.399Z,68.09
2022-10-13T10:59:52.156Z,68.35
2022-10-13T11:05:05.370Z,68.67
2022-10-13T11:10:22.811Z,67.73
2022-10-13T11:15:33.922Z,66.84
2022-10-13T11:21:02.158Z,67.90
2022-10-13T11:26:42.829Z,66.23
2022-10-13T11:31:55.607Z,65.83
2022-10-13T11:37:18.875Z,66.42
2022-10-13T11:43:11.964Z,66.27
2022-10-13T11:48:51.840Z,64.32
2022-10-13T11:54:15.213Z,64.17
2022-10-13T11:59:28.671Z,66.61
2022-10-13T12:04:34.930Z,66.92
2022-10-13T12:09:52.518Z,66.66
2022-10-13T12:15:04.363Z,63.93
2022-10-13T12:20:24.398Z,62.27
2022-10-13T12:25:34.024Z,63.38
2022-10-13T12:30:40.147Z,61.67
2022-10-13T12:35:46.320Z,62.51
2022-10-13T12:40:55.364Z,64.56
2022-10-13T12:46:04.410Z,65.14
2022-10-13T12:51:22.037Z,65.89
2022-10-13T12:56:33.011Z,65.12
2022-10-13T13:01:39.187Z,65.64
2022-10-13T13:06:56.812Z,65.64
2022-10-13T13:12:29.092Z,63.72
2022-10-13T13:17:57.289Z,64.24
2022-10-13T15:36:25.684Z,69.92
2022-10-13T15:41:31.839Z,70.64
2022-10-13T15:46:49.147Z,71.76
2022-10-13T15:52:07.093Z,71.65
2022-10-13T15:57:13.390Z,71.28
2022-10-13T16:02:19.810Z,71.59
2022-10-13T16:07:27.850Z,72.13
2022-10-13T16:12:34.216Z,71.25
2022-10-13T16:17:40.770Z,71.52
2022-10-13T16:22:48.424Z,71.29
2022-10-13T16:27:54.590Z,71.99
2022-10-13T16:33:00.608Z,72.00
2022-10-13T16:38:08.089Z,71.80
2022-10-13T16:43:14.320Z,72.49
2022-10-13T16:48:27.657Z,72.73
2022-10-13T16:53:36.008Z,73.39
2022-10-13T16:58:45.420Z,72.79
2022-10-13T17:03:53.539Z,72.02
2022-10-13T17:09:03.472Z,72.36
2022-10-13T17:14:10.670Z,72.17
2022-10-13T17:19:17.588Z,72.70
2022-10-13T17:24:26.856Z,72.25
2022-10-13T17:29:33.327Z,72.96
2022-10-13T17:34:41.201Z,73.19
2022-10-13T17:39:50.331Z,72.91
2022-10-13T17:44:59.166Z,72.59
2022-10-13T17:50:06.942Z,73.33
2022-10-13T17:55:15.153Z,72.45
2022-10-13T18:00:22.439Z,73.22
2022-10-13T18:05:29.413Z,72.96
2022-10-13T18:11:03.621Z,72.74
2022-10-13T18:16:08.574Z,73.25
2022-10-13T18:21:17.901Z,73.43
2022-10-13T18:26:29.195Z,73.71
2022-10-13T18:31:38.988Z,73.15
2022-10-13T18:36:49.000Z,74.04
2022-10-13T18:41:59.446Z,73.92
2022-10-13T18:47:14.199Z,73.48
2022-10-13T18:52:21.166Z,73.52
2022-10-13T18:57:29.843Z,73.92
2022-10-13T19:02:36.545Z,74.10
2022-10-13T19:07:43.644Z,73.66
2022-10-13T19:12:52.482Z,73.69
2022-10-13T19:17:59.697Z,73.86
2022-10-13T19:23:08.160Z,73.67
2022-10-13T19:28:17.818Z,74.40
2022-10-13T19:33:25.033Z,74.19
2022-10-13T19:38:33.302Z,74.15
2022-10-13T19:43:41.200Z,74.02
2022-10-13T19:48:48.781Z,73.11
2022-10-13T19:53:56.036Z,72.55
2022-10-13T19:59:06.173Z,73.13
2022-10-13T20:04:13.917Z,73.01
2022-10-13T20:09:23.046Z,72.78
2022-10-13T20:14:31.272Z,73.03
2022-10-13T20:19:37.426Z,72.99
2022-10-13T20:24:43.634Z,73.19
2022-10-13T20:29:51.172Z,74.03
2022-10-13T20:34:57.277Z,74.35
2022-10-13T20:40:03.595Z,74.85
2022-10-13T20:45:12.982Z,74.25
2022-10-13T20:50:19.054Z,73.71
2022-10-13T20:55:24.946Z,73.40
2022-10-13T21:00:32.380Z,73.24
2022-10-13T21:05:38.662Z,71.97
2022-10-13T21:10:45.141Z,72.91
2022-10-13T21:15:53.150Z,73.04
2022-10-13T21:21:05.946Z,73.03
2022-10-13T21:26:14.383Z,73.92
2022-10-13T21:31:26.783Z,73.75
2022-10-13T21:36:34.275Z,73.49
